sensor_id;sensor_type;location;lat;lon;timestamp;temperature;humidity
26803;DHT22;14378;51.796;5.808;2023-10-19T00:00:29;12.50;99.90
26803;DHT22;14378;51.796;5.808;2023-10-19T00:02:34;12.50;99.90
26803;DHT22;14378;51.796;5.808;2023-10-19T00:04:35;12.40;99.90
26803;DHT22;14378;51.796;5.808;2023-10-19T00:06:36;12.50;99.90
26803;DHT22;14378;51.796;5.808;2023-10-19T00:08:40;12.50;99.90
26803;DHT22;14378;51.796;5.808;2023-10-19T00:10:46;12.50;99.90
26803;DHT22;14378;51.796;5.808;2023-10-19T00:12:48;12.50;99.90
26803;DHT22;14378;51.796;5.808;2023-10-19T00:14:58;12.50;99.90
26803;DHT22;14378;51.796;5.808;2023-10-19T00:17:00;12.50;99.90
26803;DHT22;14378;51.796;5.808;2023-10-19T00:19:05;12.60;99.90
26803;DHT22;14378;51.796;5.808;2023-10-19T00:21:07;12.60;99.90
26803;DHT22;14378;51.796;5.808;2023-10-19T00:23:27;12.60;99.90
26803;DHT22;14378;51.796;5.808;2023-10-19T00:25:35;12.60;99.90
26803;DHT22;14378;51.796;5.808;2023-10-19T00:27:41;12.60;99.90
26803;DHT22;14378;51.796;5.808;2023-10-19T00:29:44;12.70;99.90
26803;DHT22;14378;51.796;5.808;2023-10-19T00:31:57;12.60;99.90
26803;DHT22;14378;51.796;5.808;2023-10-19T00:34:02;12.60;99.90
26803;DHT22;14378;51.796;5.808;2023-10-19T00:36:04;12.60;99.90
26803;DHT22;14378;51.796;5.808;2023-10-19T00:38:14;12.60;99.90
26803;DHT22;14378;51.796;5.808;2023-10-19T00:40:33;12.60;99.90
26803;DHT22;14378;51.796;5.808;2023-10-19T00:42:35;12.60;99.90
26803;DHT22;14378;51.796;5.808;2023-10-19T00:44:39;12.60;99.90
26803;DHT22;14378;51.796;5.808;2023-10-19T00:46:44;12.60;99.90
26803;DHT22;14378;51.796;5.808;2023-10-19T00:48:57;12.60;99.90
26803;DHT22;14378;51.796;5.808;2023-10-19T00:50:59;12.60;99.90
26803;DHT22;14378;51.796;5.808;2023-10-19T00:53:27;12.70;99.90
26803;DHT22;14378;51.796;5.808;2023-10-19T00:55:28;12.70;99.90
26803;DHT22;14378;51.796;5.808;2023-10-19T00:57:29;12.70;99.90
26803;DHT22;14378;51.796;5.808;2023-10-19T00:59:35;12.70;99.90
26803;DHT22;14378;51.796;5.808;2023-10-19T01:01:41;12.70;99.90
26803;DHT22;14378;51.796;5.808;2023-10-19T01:03:45;12.70;99.90
26803;DHT22;14378;51.796;5.808;2023-10-19T01:05:52;12.70;99.90
26803;DHT22;14378;51.796;5.808;2023-10-19T01:07:54;12.80;99.90
26803;DHT22;14378;51.796;5.808;2023-10-19T01:10:02;12.80;99.90
26803;DHT22;14378;51.796;5.808;2023-10-19T01:12:06;12.80;99.90
26803;DHT22;14378;51.796;5.808;2023-10-19T01:14:27;12.80;99.90
26803;DHT22;14378;51.796;5.808;2023-10-19T01:16:28;12.80;99.90
26803;DHT22;14378;51.796;5.808;2023-10-19T01:18:29;12.90;99.90
26803;DHT22;14378;51.796;5.808;2023-10-19T01:20:33;12.80;99.90
26803;DHT22;14378;51.796;5.808;2023-10-19T01:22:52;12.90;99.90
26803;DHT22;14378;51.796;5.808;2023-10-19T01:24:54;12.90;99.90
26803;DHT22;14378;51.796;5.808;2023-10-19T01:26:56;12.90;99.90
26803;DHT22;14378;51.796;5.808;2023-10-19T01:28:57;12.90;99.90
26803;DHT22;14378;51.796;5.808;2023-10-19T01:31:02;12.90;99.90
26803;DHT22;14378;51.796;5.808;2023-10-19T01:33:07;13.00;99.90
26803;DHT22;14378;51.796;5.808;2023-10-19T01:35:16;13.00;99.90
26803;DHT22;14378;51.796;5.808;2023-10-19T01:37:17;13.00;99.90
26803;DHT22;14378;51.796;5.808;2023-10-19T01:39:17;13.00;99.90
26803;DHT22;14378;51.796;5.808;2023-10-19T01:41:21;13.00;99.90
26803;DHT22;14378;51.796;5.808;2023-10-19T01:43:23;13.00;99.90
26803;DHT22;14378;51.796;5.808;2023-10-19T01:45:30;13.00;99.90
26803;DHT22;14378;51.796;5.808;2023-10-19T01:47:31;13.10;99.90
26803;DHT22;14378;51.796;5.808;2023-10-19T01:49:33;13.10;99.90
26803;DHT22;14378;51.796;5.808;2023-10-19T01:51:35;13.10;99.90
26803;DHT22;14378;51.796;5.808;2023-10-19T01:53:40;13.10;99.90
26803;DHT22;14378;51.796;5.808;2023-10-19T01:55:45;13.20;99.90
26803;DHT22;14378;51.796;5.808;2023-10-19T01:57:48;13.20;99.90
26803;DHT22;14378;51.796;5.808;2023-10-19T01:59:49;13.20;99.90
26803;DHT22;14378;51.796;5.808;2023-10-19T02:01:50;13.20;99.90
26803;DHT22;14378;51.796;5.808;2023-10-19T02:04:03;13.20;99.90
26803;DHT22;14378;51.796;5.808;2023-10-19T02:06:06;13.20;99.90
26803;DHT22;14378;51.796;5.808;2023-10-19T02:08:12;13.30;99.90
26803;DHT22;14378;51.796;5.808;2023-10-19T02:10:13;13.30;99.90
26803;DHT22;14378;51.796;5.808;2023-10-19T02:12:14;13.30;99.90
26803;DHT22;14378;51.796;5.808;2023-10-19T02:14:18;13.30;99.90
26803;DHT22;14378;51.796;5.808;2023-10-19T02:16:21;13.40;99.90
26803;DHT22;14378;51.796;5.808;2023-10-19T02:18:33;13.40;99.90
26803;DHT22;14378;51.796;5.808;2023-10-19T02:20:36;13.40;99.90
26803;DHT22;14378;51.796;5.808;2023-10-19T02:22:41;13.50;99.90
26803;DHT22;14378;51.796;5.808;2023-10-19T02:24:46;13.40;99.90
26803;DHT22;14378;51.796;5.808;2023-10-19T02:26:51;13.50;99.90
26803;DHT22;14378;51.796;5.808;2023-10-19T02:28:52;13.50;99.90
26803;DHT22;14378;51.796;5.808;2023-10-19T02:30:53;13.50;99.90
26803;DHT22;14378;51.796;5.808;2023-10-19T02:32:54;13.50;99.90
26803;DHT22;14378;51.796;5.808;2023-10-19T02:34:55;13.50;99.90
26803;DHT22;14378;51.796;5.808;2023-10-19T02:36:58;13.60;99.90
26803;DHT22;14378;51.796;5.808;2023-10-19T02:39:02;13.60;99.90
26803;DHT22;14378;51.796;5.808;2023-10-19T02:41:15;13.60;99.90
26803;DHT22;14378;51.796;5.808;2023-10-19T02:43:18;13.60;99.90
26803;DHT22;14378;51.796;5.808;2023-10-19T02:45:20;13.60;99.90
26803;DHT22;14378;51.796;5.808;2023-10-19T02:47:21;13.70;99.90
26803;DHT22;14378;51.796;5.808;2023-10-19T02:49:22;13.70;99.90
26803;DHT22;14378;51.796;5.808;2023-10-19T02:51:23;13.70;99.90
26803;DHT22;14378;51.796;5.808;2023-10-19T02:53:24;13.70;99.90
26803;DHT22;14378;51.796;5.808;2023-10-19T02:55:25;13.70;99.90
26803;DHT22;14378;51.796;5.808;2023-10-19T02:57:26;13.70;99.90
26803;DHT22;14378;51.796;5.808;2023-10-19T02:59:31;13.70;99.90
26803;DHT22;14378;51.796;5.808;2023-10-19T03:01:33;13.80;99.90
26803;DHT22;14378;51.796;5.808;2023-10-19T03:03:35;13.80;99.90
26803;DHT22;14378;51.796;5.808;2023-10-19T03:05:36;13.90;99.90
26803;DHT22;14378;51.796;5.808;2023-10-19T03:07:38;13.90;99.90
26803;DHT22;14378;51.796;5.808;2023-10-19T03:09:39;13.90;99.90
26803;DHT22;14378;51.796;5.808;2023-10-19T03:11:44;14.00;99.90
26803;DHT22;14378;51.796;5.808;2023-10-19T03:13:45;14.00;99.90
26803;DHT22;14378;51.796;5.808;2023-10-19T03:15:50;14.00;99.90
26803;DHT22;14378;51.796;5.808;2023-10-19T03:17:54;14.00;99.90
26803;DHT22;14378;51.796;5.808;2023-10-19T03:19:55;14.10;99.90
26803;DHT22;14378;51.796;5.808;2023-10-19T03:21:56;14.10;99.90
26803;DHT22;14378;51.796;5.808;2023-10-19T03:24:01;14.20;99.90
26803;DHT22;14378;51.796;5.808;2023-10-19T03:26:06;14.20;99.90
26803;DHT22;14378;51.796;5.808;2023-10-19T03:28:25;14.20;99.90
26803;DHT22;14378;51.796;5.808;2023-10-19T03:30:26;14.20;99.90
26803;DHT22;14378;51.796;5.808;2023-10-19T03:32:29;14.30;99.90
26803;DHT22;14378;51.796;5.808;2023-10-19T03:34:34;14.30;99.90
26803;DHT22;14378;51.796;5.808;2023-10-19T03:36:35;14.30;99.90
26803;DHT22;14378;51.796;5.808;2023-10-19T03:38:36;14.30;99.90
26803;DHT22;14378;51.796;5.808;2023-10-19T03:40:38;14.30;99.90
26803;DHT22;14378;51.796;5.808;2023-10-19T03:42:39;14.30;99.90
26803;DHT22;14378;51.796;5.808;2023-10-19T03:44:44;14.40;99.90
26803;DHT22;14378;51.796;5.808;2023-10-19T03:46:48;14.40;99.90
26803;DHT22;14378;51.796;5.808;2023-10-19T03:49:09;14.40;99.90
26803;DHT22;14378;51.796;5.808;2023-10-19T03:51:14;14.40;99.90
26803;DHT22;14378;51.796;5.808;2023-10-19T03:53:15;14.40;99.90
26803;DHT22;14378;51.796;5.808;2023-10-19T03:55:16;14.40;99.90
26803;DHT22;14378;51.796;5.808;2023-10-19T03:57:23;14.40;99.90
26803;DHT22;14378;51.796;5.808;2023-10-19T03:59:25;14.40;99.90
26803;DHT22;14378;51.796;5.808;2023-10-19T04:01:30;14.40;99.90
26803;DHT22;14378;51.796;5.808;2023-10-19T04:03:32;14.40;99.90
26803;DHT22;14378;51.796;5.808;2023-10-19T04:05:33;14.40;99.90
26803;DHT22;14378;51.796;5.808;2023-10-19T04:07:38;14.40;99.90
26803;DHT22;14378;51.796;5.808;2023-10-19T04:09:39;14.40;99.90
26803;DHT22;14378;51.796;5.808;2023-10-19T04:11:57;14.40;99.90
26803;DHT22;14378;51.796;5.808;2023-10-19T04:13:59;14.50;99.90
26803;DHT22;14378;51.796;5.808;2023-10-19T04:16:04;14.50;99.90
26803;DHT22;14378;51.796;5.808;2023-10-19T04:18:11;14.40;99.90
26803;DHT22;14378;51.796;5.808;2023-10-19T04:20:13;14.50;99.90
26803;DHT22;14378;51.796;5.808;2023-10-19T04:22:18;14.40;99.90
26803;DHT22;14378;51.796;5.808;2023-10-19T04:24:25;14.40;99.90
26803;DHT22;14378;51.796;5.808;2023-10-19T04:26:26;14.50;99.90
26803;DHT22;14378;51.796;5.808;2023-10-19T04:28:27;14.50;99.90
26803;DHT22;14378;51.796;5.808;2023-10-19T04:30:46;14.50;99.90
26803;DHT22;14378;51.796;5.808;2023-10-19T04:32:49;14.50;99.90
26803;DHT22;14378;51.796;5.808;2023-10-19T04:34:52;14.50;99.90
26803;DHT22;14378;51.796;5.808;2023-10-19T04:36:53;14.50;99.90
26803;DHT22;14378;51.796;5.808;2023-10-19T04:38:54;14.50;99.90
26803;DHT22;14378;51.796;5.808;2023-10-19T04:41:09;14.50;99.90
26803;DHT22;14378;51.796;5.808;2023-10-19T04:43:10;14.50;99.90
26803;DHT22;14378;51.796;5.808;2023-10-19T04:45:12;14.50;99.90
26803;DHT22;14378;51.796;5.808;2023-10-19T04:47:13;14.50;99.90
26803;DHT22;14378;51.796;5.808;2023-10-19T04:49:14;14.50;99.90
26803;DHT22;14378;51.796;5.808;2023-10-19T04:51:17;14.50;99.90
26803;DHT22;14378;51.796;5.808;2023-10-19T04:53:17;14.50;99.90
26803;DHT22;14378;51.796;5.808;2023-10-19T04:55:18;14.40;99.90
26803;DHT22;14378;51.796;5.808;2023-10-19T04:57:20;14.40;99.90
26803;DHT22;14378;51.796;5.808;2023-10-19T04:59:24;14.40;99.90
26803;DHT22;14378;51.796;5.808;2023-10-19T05:01:25;14.40;99.90
26803;DHT22;14378;51.796;5.808;2023-10-19T05:03:26;14.40;99.90
26803;DHT22;14378;51.796;5.808;2023-10-19T05:05:28;14.30;99.90
26803;DHT22;14378;51.796;5.808;2023-10-19T05:07:29;14.30;99.90
26803;DHT22;14378;51.796;5.808;2023-10-19T05:09:32;14.30;99.90
26803;DHT22;14378;51.796;5.808;2023-10-19T05:11:33;14.30;99.90
26803;DHT22;14378;51.796;5.808;2023-10-19T05:13:35;14.30;99.90
26803;DHT22;14378;51.796;5.808;2023-10-19T05:15:39;14.30;99.90
26803;DHT22;14378;51.796;5.808;2023-10-19T05:17:43;14.30;99.90
26803;DHT22;14378;51.796;5.808;2023-10-19T05:19:44;14.20;99.90
26803;DHT22;14378;51.796;5.808;2023-10-19T05:21:46;14.20;99.90
26803;DHT22;14378;51.796;5.808;2023-10-19T05:23:47;14.20;99.90
26803;DHT22;14378;51.796;5.808;2023-10-19T05:25:48;14.20;99.90
26803;DHT22;14378;51.796;5.808;2023-10-19T05:27:49;14.20;99.90
26803;DHT22;14378;51.796;5.808;2023-10-19T05:29:50;14.20;99.90
26803;DHT22;14378;51.796;5.808;2023-10-19T05:31:52;14.20;99.90
26803;DHT22;14378;51.796;5.808;2023-10-19T05:33:59;14.10;99.90
26803;DHT22;14378;51.796;5.808;2023-10-19T05:35:59;14.10;99.90
26803;DHT22;14378;51.796;5.808;2023-10-19T05:38:02;14.10;99.90
26803;DHT22;14378;51.796;5.808;2023-10-19T05:40:03;14.10;99.90
26803;DHT22;14378;51.796;5.808;2023-10-19T05:42:05;14.10;99.90
26803;DHT22;14378;51.796;5.808;2023-10-19T05:44:06;14.10;99.90
26803;DHT22;14378;51.796;5.808;2023-10-19T05:46:07;14.20;99.90
26803;DHT22;14378;51.796;5.808;2023-10-19T05:48:08;14.20;99.90
26803;DHT22;14378;51.796;5.808;2023-10-19T05:50:10;14.20;99.90
26803;DHT22;14378;51.796;5.808;2023-10-19T05:52:17;14.20;99.90
26803;DHT22;14378;51.796;5.808;2023-10-19T05:54:18;14.20;99.90
26803;DHT22;14378;51.796;5.808;2023-10-19T05:56:20;14.20;99.90
26803;DHT22;14378;51.796;5.808;2023-10-19T05:58:21;14.20;99.90
26803;DHT22;14378;51.796;5.808;2023-10-19T06:00:22;14.20;99.90
26803;DHT22;14378;51.796;5.808;2023-10-19T06:02:26;14.20;99.90
26803;DHT22;14378;51.796;5.808;2023-10-19T06:04:27;14.30;99.90
26803;DHT22;14378;51.796;5.808;2023-10-19T06:06:28;14.30;99.90
26803;DHT22;14378;51.796;5.808;2023-10-19T06:08:29;14.30;99.90
26803;DHT22;14378;51.796;5.808;2023-10-19T06:10:31;14.30;99.90
26803;DHT22;14378;51.796;5.808;2023-10-19T06:12:33;14.40;99.90
26803;DHT22;14378;51.796;5.808;2023-10-19T06:14:35;14.40;99.90
26803;DHT22;14378;51.796;5.808;2023-10-19T06:16:36;14.40;99.90
26803;DHT22;14378;51.796;5.808;2023-10-19T06:18:38;14.40;99.90
26803;DHT22;14378;51.796;5.808;2023-10-19T06:20:46;14.40;99.90
26803;DHT22;14378;51.796;5.808;2023-10-19T06:22:47;14.40;99.90
26803;DHT22;14378;51.796;5.808;2023-10-19T06:24:50;14.50;99.90
26803;DHT22;14378;51.796;5.808;2023-10-19T06:26:52;14.50;99.90
26803;DHT22;14378;51.796;5.808;2023-10-19T06:28:53;14.50;99.90
26803;DHT22;14378;51.796;5.808;2023-10-19T06:30:59;14.50;99.90
26803;DHT22;14378;51.796;5.808;2023-10-19T06:33:01;14.60;99.90
26803;DHT22;14378;51.796;5.808;2023-10-19T06:35:02;14.60;99.90
26803;DHT22;14378;51.796;5.808;2023-10-19T06:37:03;14.60;99.90
26803;DHT22;14378;51.796;5.808;2023-10-19T06:39:04;14.60;99.90
26803;DHT22;14378;51.796;5.808;2023-10-19T06:41:13;14.70;99.90
26803;DHT22;14378;51.796;5.808;2023-10-19T06:43:14;14.70;99.90
26803;DHT22;14378;51.796;5.808;2023-10-19T06:45:16;14.70;99.90
26803;DHT22;14378;51.796;5.808;2023-10-19T06:47:19;14.70;99.90
26803;DHT22;14378;51.796;5.808;2023-10-19T06:49:21;14.70;99.90
26803;DHT22;14378;51.796;5.808;2023-10-19T06:51:21;14.70;99.90
26803;DHT22;14378;51.796;5.808;2023-10-19T06:53:23;14.80;99.90
26803;DHT22;14378;51.796;5.808;2023-10-19T06:55:25;14.80;99.90
26803;DHT22;14378;51.796;5.808;2023-10-19T06:57:26;14.80;99.90
26803;DHT22;14378;51.796;5.808;2023-10-19T06:59:28;14.80;99.90
26803;DHT22;14378;51.796;5.808;2023-10-19T07:01:30;14.80;99.90
26803;DHT22;14378;51.796;5.808;2023-10-19T07:03:32;14.80;99.90
26803;DHT22;14378;51.796;5.808;2023-10-19T07:05:34;14.90;99.90
26803;DHT22;14378;51.796;5.808;2023-10-19T07:07:35;14.90;99.90
26803;DHT22;14378;51.796;5.808;2023-10-19T07:09:36;14.90;99.90
26803;DHT22;14378;51.796;5.808;2023-10-19T07:11:37;14.90;99.90
26803;DHT22;14378;51.796;5.808;2023-10-19T07:13:38;14.90;99.90
26803;DHT22;14378;51.796;5.808;2023-10-19T07:15:40;14.90;99.90
26803;DHT22;14378;51.796;5.808;2023-10-19T07:17:43;14.90;99.90
26803;DHT22;14378;51.796;5.808;2023-10-19T07:19:44;14.90;99.90
26803;DHT22;14378;51.796;5.808;2023-10-19T07:21:45;15.00;99.90
26803;DHT22;14378;51.796;5.808;2023-10-19T07:23:49;15.00;99.90
26803;DHT22;14378;51.796;5.808;2023-10-19T07:25:53;15.00;99.90
26803;DHT22;14378;51.796;5.808;2023-10-19T07:28:00;15.00;99.90
26803;DHT22;14378;51.796;5.808;2023-10-19T07:30:01;15.00;99.90
26803;DHT22;14378;51.796;5.808;2023-10-19T07:32:06;15.00;99.90
26803;DHT22;14378;51.796;5.808;2023-10-19T07:34:11;15.10;99.90
26803;DHT22;14378;51.796;5.808;2023-10-19T07:36:16;15.10;99.90
26803;DHT22;14378;51.796;5.808;2023-10-19T07:38:19;15.10;99.90
26803;DHT22;14378;51.796;5.808;2023-10-19T07:40:23;15.10;99.90
26803;DHT22;14378;51.796;5.808;2023-10-19T07:42:24;15.20;99.90
26803;DHT22;14378;51.796;5.808;2023-10-19T07:44:26;15.20;99.90
26803;DHT22;14378;51.796;5.808;2023-10-19T07:46:30;15.20;99.90
26803;DHT22;14378;51.796;5.808;2023-10-19T07:48:33;15.20;99.90
26803;DHT22;14378;51.796;5.808;2023-10-19T07:50:36;15.30;99.90
26803;DHT22;14378;51.796;5.808;2023-10-19T07:52:39;15.30;99.90
26803;DHT22;14378;51.796;5.808;2023-10-19T07:54:40;15.30;99.90
26803;DHT22;14378;51.796;5.808;2023-10-19T07:56:41;15.30;99.90
26803;DHT22;14378;51.796;5.808;2023-10-19T07:58:42;15.30;99.90
26803;DHT22;14378;51.796;5.808;2023-10-19T08:00:43;15.40;99.90
26803;DHT22;14378;51.796;5.808;2023-10-19T08:02:47;15.40;99.90
26803;DHT22;14378;51.796;5.808;2023-10-19T08:04:49;15.40;99.90
26803;DHT22;14378;51.796;5.808;2023-10-19T08:06:50;15.40;99.90
26803;DHT22;14378;51.796;5.808;2023-10-19T08:08:51;15.50;99.90
26803;DHT22;14378;51.796;5.808;2023-10-19T08:10:52;15.50;99.90
26803;DHT22;14378;51.796;5.808;2023-10-19T08:12:53;15.50;99.90
26803;DHT22;14378;51.796;5.808;2023-10-19T08:14:56;15.60;99.90
26803;DHT22;14378;51.796;5.808;2023-10-19T08:16:57;15.60;99.90
26803;DHT22;14378;51.796;5.808;2023-10-19T08:18:58;15.60;99.90
26803;DHT22;14378;51.796;5.808;2023-10-19T08:20:59;15.60;99.90
26803;DHT22;14378;51.796;5.808;2023-10-19T08:23:00;15.70;99.90
26803;DHT22;14378;51.796;5.808;2023-10-19T08:25:05;15.70;99.90
26803;DHT22;14378;51.796;5.808;2023-10-19T08:27:12;15.70;99.90
26803;DHT22;14378;51.796;5.808;2023-10-19T08:29:13;15.80;99.90
26803;DHT22;14378;51.796;5.808;2023-10-19T08:31:14;15.80;99.90
26803;DHT22;14378;51.796;5.808;2023-10-19T08:33:15;15.80;99.90
26803;DHT22;14378;51.796;5.808;2023-10-19T08:35:21;15.80;99.90
26803;DHT22;14378;51.796;5.808;2023-10-19T08:37:25;15.90;99.90
26803;DHT22;14378;51.796;5.808;2023-10-19T08:39:26;15.90;99.90
26803;DHT22;14378;51.796;5.808;2023-10-19T08:41:27;16.00;99.90
26803;DHT22;14378;51.796;5.808;2023-10-19T08:43:28;16.00;99.90
26803;DHT22;14378;51.796;5.808;2023-10-19T08:45:30;16.10;99.90
26803;DHT22;14378;51.796;5.808;2023-10-19T08:47:36;16.10;99.90
26803;DHT22;14378;51.796;5.808;2023-10-19T08:49:37;16.20;99.90
26803;DHT22;14378;51.796;5.808;2023-10-19T08:51:40;16.20;99.90
26803;DHT22;14378;51.796;5.808;2023-10-19T08:53:41;16.30;99.90
26803;DHT22;14378;51.796;5.808;2023-10-19T08:55:44;16.30;99.90
26803;DHT22;14378;51.796;5.808;2023-10-19T08:57:48;16.30;99.90
26803;DHT22;14378;51.796;5.808;2023-10-19T08:59:49;16.40;99.90
26803;DHT22;14378;51.796;5.808;2023-10-19T09:01:50;16.40;99.90
26803;DHT22;14378;51.796;5.808;2023-10-19T09:03:51;16.40;99.90
26803;DHT22;14378;51.796;5.808;2023-10-19T09:05:52;16.50;99.90
26803;DHT22;14378;51.796;5.808;2023-10-19T09:07:55;16.50;99.90
26803;DHT22;14378;51.796;5.808;2023-10-19T09:09:57;16.50;99.90
26803;DHT22;14378;51.796;5.808;2023-10-19T09:11:57;16.50;99.90
26803;DHT22;14378;51.796;5.808;2023-10-19T09:13:58;16.60;99.90
26803;DHT22;14378;51.796;5.808;2023-10-19T09:16:08;16.70;99.90
26803;DHT22;14378;51.796;5.808;2023-10-19T09:20:18;16.80;99.90
26803;DHT22;14378;51.796;5.808;2023-10-19T09:22:35;17.00;99.90
26803;DHT22;14378;51.796;5.808;2023-10-19T09:24:37;17.20;99.90
26803;DHT22;14378;51.796;5.808;2023-10-19T09:26:38;17.30;99.90
26803;DHT22;14378;51.796;5.808;2023-10-19T09:28:39;17.50;99.90
26803;DHT22;14378;51.796;5.808;2023-10-19T09:30:42;17.70;99.90
26803;DHT22;14378;51.796;5.808;2023-10-19T09:32:46;17.80;99.90
26803;DHT22;14378;51.796;5.808;2023-10-19T09:34:49;17.90;99.90
26803;DHT22;14378;51.796;5.808;2023-10-19T09:36:53;18.00;99.90
26803;DHT22;14378;51.796;5.808;2023-10-19T09:38:57;18.10;99.90
26803;DHT22;14378;51.796;5.808;2023-10-19T09:40:58;18.30;99.90
26803;DHT22;14378;51.796;5.808;2023-10-19T09:43:04;18.50;99.90
26803;DHT22;14378;51.796;5.808;2023-10-19T09:45:09;18.60;99.90
26803;DHT22;14378;51.796;5.808;2023-10-19T09:47:40;18.70;99.90
26803;DHT22;14378;51.796;5.808;2023-10-19T09:49:42;18.90;99.90
26803;DHT22;14378;51.796;5.808;2023-10-19T09:51:46;19.10;99.90
26803;DHT22;14378;51.796;5.808;2023-10-19T09:53:55;19.20;99.90
26803;DHT22;14378;51.796;5.808;2023-10-19T09:55:59;19.40;99.90
26803;DHT22;14378;51.796;5.808;2023-10-19T09:58:29;19.60;99.90
26803;DHT22;14378;51.796;5.808;2023-10-19T10:00:32;19.70;99.90
26803;DHT22;14378;51.796;5.808;2023-10-19T10:02:35;19.90;99.90
26803;DHT22;14378;51.796;5.808;2023-10-19T10:04:36;20.00;99.90
26803;DHT22;14378;51.796;5.808;2023-10-19T10:08:58;20.20;99.90
26803;DHT22;14378;51.796;5.808;2023-10-19T10:11:16;20.40;99.90
26803;DHT22;14378;51.796;5.808;2023-10-19T10:15:39;20.50;99.90
26803;DHT22;14378;51.796;5.808;2023-10-19T10:17:40;20.50;99.90
26803;DHT22;14378;51.796;5.808;2023-10-19T10:19:41;20.50;99.90
26803;DHT22;14378;51.796;5.808;2023-10-19T10:24:12;20.70;99.90
26803;DHT22;14378;51.796;5.808;2023-10-19T10:26:16;20.70;99.90
26803;DHT22;14378;51.796;5.808;2023-10-19T10:28:18;20.70;99.90
26803;DHT22;14378;51.796;5.808;2023-10-19T10:30:20;20.60;99.90
26803;DHT22;14378;51.796;5.808;2023-10-19T10:32:46;20.60;99.90
26803;DHT22;14378;51.796;5.808;2023-10-19T10:34:51;20.60;99.90
26803;DHT22;14378;51.796;5.808;2023-10-19T10:37:03;20.50;99.90
26803;DHT22;14378;51.796;5.808;2023-10-19T10:39:05;20.50;99.90
26803;DHT22;14378;51.796;5.808;2023-10-19T10:41:06;20.50;99.90
26803;DHT22;14378;51.796;5.808;2023-10-19T10:43:11;20.50;99.90
26803;DHT22;14378;51.796;5.808;2023-10-19T10:45:24;20.40;99.90
26803;DHT22;14378;51.796;5.808;2023-10-19T10:47:25;20.40;99.90
26803;DHT22;14378;51.796;5.808;2023-10-19T10:49:26;20.40;99.90
26803;DHT22;14378;51.796;5.808;2023-10-19T10:51:28;20.40;99.90
26803;DHT22;14378;51.796;5.808;2023-10-19T10:53:31;20.40;99.90
26803;DHT22;14378;51.796;5.808;2023-10-19T10:55:32;20.50;99.90
26803;DHT22;14378;51.796;5.808;2023-10-19T10:57:34;20.50;99.90
26803;DHT22;14378;51.796;5.808;2023-10-19T10:59:35;20.70;99.90
26803;DHT22;14378;51.796;5.808;2023-10-19T11:01:36;20.80;99.90
26803;DHT22;14378;51.796;5.808;2023-10-19T11:03:42;21.00;99.90
26803;DHT22;14378;51.796;5.808;2023-10-19T11:05:43;21.20;99.90
26803;DHT22;14378;51.796;5.808;2023-10-19T11:08:14;21.40;99.90
26803;DHT22;14378;51.796;5.808;2023-10-19T11:10:27;21.50;99.90
26803;DHT22;14378;51.796;5.808;2023-10-19T11:12:28;21.70;99.90
26803;DHT22;14378;51.796;5.808;2023-10-19T11:14:30;21.80;99.90
26803;DHT22;14378;51.796;5.808;2023-10-19T11:16:31;22.00;99.90
26803;DHT22;14378;51.796;5.808;2023-10-19T11:18:40;22.10;99.90
26803;DHT22;14378;51.796;5.808;2023-10-19T11:20:42;22.10;99.90
26803;DHT22;14378;51.796;5.808;2023-10-19T11:22:50;22.10;99.90
26803;DHT22;14378;51.796;5.808;2023-10-19T11:24:52;22.20;99.90
26803;DHT22;14378;51.796;5.808;2023-10-19T11:26:54;22.30;99.90
26803;DHT22;14378;51.796;5.808;2023-10-19T11:29:03;22.20;99.90
26803;DHT22;14378;51.796;5.808;2023-10-19T11:31:18;22.10;99.90
26803;DHT22;14378;51.796;5.808;2023-10-19T11:33:20;22.00;99.90
26803;DHT22;14378;51.796;5.808;2023-10-19T11:35:25;22.10;99.90
26803;DHT22;14378;51.796;5.808;2023-10-19T11:37:28;22.30;99.90
26803;DHT22;14378;51.796;5.808;2023-10-19T11:39:29;22.50;99.90
26803;DHT22;14378;51.796;5.808;2023-10-19T11:41:30;22.60;99.90
26803;DHT22;14378;51.796;5.808;2023-10-19T11:43:31;22.60;99.90
26803;DHT22;14378;51.796;5.808;2023-10-19T11:45:32;22.60;99.90
26803;DHT22;14378;51.796;5.808;2023-10-19T11:47:33;22.70;99.90
26803;DHT22;14378;51.796;5.808;2023-10-19T11:49:39;22.80;99.90
26803;DHT22;14378;51.796;5.808;2023-10-19T11:51:40;22.80;99.90
26803;DHT22;14378;51.796;5.808;2023-10-19T11:53:42;22.90;99.90
26803;DHT22;14378;51.796;5.808;2023-10-19T11:55:46;22.90;99.90
26803;DHT22;14378;51.796;5.808;2023-10-19T11:57:48;22.80;99.90
26803;DHT22;14378;51.796;5.808;2023-10-19T11:59:50;22.70;99.90
26803;DHT22;14378;51.796;5.808;2023-10-19T12:01:54;22.60;99.90
26803;DHT22;14378;51.796;5.808;2023-10-19T12:03:55;22.60;99.90
26803;DHT22;14378;51.796;5.808;2023-10-19T12:05:56;22.50;99.90
26803;DHT22;14378;51.796;5.808;2023-10-19T12:07:57;22.50;99.90
26803;DHT22;14378;51.796;5.808;2023-10-19T12:09:58;22.40;99.90
26803;DHT22;14378;51.796;5.808;2023-10-19T12:11:59;22.30;99.90
26803;DHT22;14378;51.796;5.808;2023-10-19T12:14:00;22.30;99.90
26803;DHT22;14378;51.796;5.808;2023-10-19T12:16:04;22.20;99.90
26803;DHT22;14378;51.796;5.808;2023-10-19T12:18:05;22.10;99.90
26803;DHT22;14378;51.796;5.808;2023-10-19T12:20:08;22.00;99.90
26803;DHT22;14378;51.796;5.808;2023-10-19T12:22:09;21.90;99.90
26803;DHT22;14378;51.796;5.808;2023-10-19T12:24:11;21.90;99.90
26803;DHT22;14378;51.796;5.808;2023-10-19T12:26:13;21.80;99.90
26803;DHT22;14378;51.796;5.808;2023-10-19T12:28:15;21.70;99.90
26803;DHT22;14378;51.796;5.808;2023-10-19T12:30:16;21.60;99.90
26803;DHT22;14378;51.796;5.808;2023-10-19T12:32:21;21.60;99.90
26803;DHT22;14378;51.796;5.808;2023-10-19T12:34:22;21.40;99.90
26803;DHT22;14378;51.796;5.808;2023-10-19T12:36:23;21.30;99.90
26803;DHT22;14378;51.796;5.808;2023-10-19T12:38:35;21.30;99.90
26803;DHT22;14378;51.796;5.808;2023-10-19T12:40:35;21.20;99.90
26803;DHT22;14378;51.796;5.808;2023-10-19T12:42:36;21.10;99.90
26803;DHT22;14378;51.796;5.808;2023-10-19T12:44:38;21.00;99.90
26803;DHT22;14378;51.796;5.808;2023-10-19T12:46:41;21.00;99.90
26803;DHT22;14378;51.796;5.808;2023-10-19T12:48:43;20.90;99.90
26803;DHT22;14378;51.796;5.808;2023-10-19T12:50:44;20.80;99.90
26803;DHT22;14378;51.796;5.808;2023-10-19T12:52:45;20.70;99.90
26803;DHT22;14378;51.796;5.808;2023-10-19T12:54:46;20.60;99.90
26803;DHT22;14378;51.796;5.808;2023-10-19T12:56:51;20.60;99.90
26803;DHT22;14378;51.796;5.808;2023-10-19T12:58:54;20.60;99.90
26803;DHT22;14378;51.796;5.808;2023-10-19T13:00:55;20.50;99.90
26803;DHT22;14378;51.796;5.808;2023-10-19T13:02:56;20.40;99.90
26803;DHT22;14378;51.796;5.808;2023-10-19T13:05:00;20.30;99.90
26803;DHT22;14378;51.796;5.808;2023-10-19T13:07:02;20.30;99.90
26803;DHT22;14378;51.796;5.808;2023-10-19T13:09:04;20.20;99.90